Terminal Aerodrome Forecast
Issued by NWS

Home | Current Version | Previous Version | Text Only | Print | Product List | Glossary On
Versions: 1 2 3 4 5 6 7 8 9 10 11 12
000
FTUS41 KBGM 261738
TAFELM
TAF
KELM 261738Z 2618/2718 22007KT P6SM SCT050 BKN100
      TEMPO 2619/2623 5SM -SHRA BR OVC040
     FM270000 00000KT P6SM BKN050
     FM270800 00000KT 3SM BR BKN050
     FM271400 24004KT P6SM BKN050=

USA.gov is the U.S. government's official web portal to all federal, state and local government web resources and services.